createdAt,value
2016-10-11T00:00:07.085Z,6.38
2016-10-11T00:00:48.818Z,6.41
2016-10-11T00:01:30.662Z,6.37
2016-10-11T00:02:12.478Z,6.34
2016-10-11T00:02:54.337Z,6.31
2016-10-11T00:03:35.848Z,6.38
2016-10-11T00:04:17.693Z,6.3
2016-10-11T00:04:59.441Z,6.31
2016-10-11T00:05:41.067Z,6.31
2016-10-11T00:06:22.782Z,6.38
2016-10-11T00:08:37.887Z,6.33
2016-10-11T00:09:19.399Z,6.31
2016-10-11T00:10:01.076Z,6.34
2016-10-11T00:10:42.834Z,6.31
2016-10-11T00:11:24.438Z,6.3
2016-10-11T00:12:06.175Z,6.21
2016-10-11T00:13:45.196Z,6.28
2016-10-11T00:14:27.040Z,6.34
2016-10-11T00:15:08.799Z,6.28
2016-10-11T00:15:50.438Z,6.21
2016-10-11T00:16:31.822Z,6.28
2016-10-11T00:17:13.597Z,6.27
2016-10-11T00:17:55.411Z,6.28
2016-10-11T00:18:37.168Z,6.15
2016-10-11T00:19:18.933Z,6.28
2016-10-11T00:20:00.539Z,6.28
2016-10-11T00:22:15.829Z,6.21
2016-10-11T00:22:57.534Z,6.22
2016-10-11T00:23:39.238Z,6.22
2016-10-11T00:25:39.161Z,6.19
2016-10-11T00:26:20.866Z,6.15
2016-10-11T00:27:02.612Z,6.18
2016-10-11T00:27:44.063Z,6.19
2016-10-11T00:28:24.601Z,6.22
2016-10-11T00:29:05.357Z,6.15
2016-10-11T00:31:20.487Z,6.14
2016-10-11T00:32:01.396Z,6.11
2016-10-11T00:32:42.384Z,6.12
2016-10-11T00:33:23.609Z,6.11
2016-10-11T00:34:04.136Z,6.12
2016-10-11T00:34:44.674Z,6.04
2016-10-11T00:35:25.215Z,6.12
2016-10-11T00:36:05.994Z,6.08
2016-10-11T00:36:47.519Z,6.08
2016-10-11T00:37:29.367Z,6
2016-10-11T00:39:44.562Z,6.08
2016-10-11T00:40:26.441Z,5.96
2016-10-11T00:41:08.132Z,5.97
2016-10-11T00:41:49.902Z,5.96
2016-10-11T00:42:31.668Z,5.93
2016-10-11T00:43:13.293Z,5.93
2016-10-11T00:43:54.953Z,6
2016-10-11T00:45:44.232Z,5.93
2016-10-11T00:46:25.972Z,5.97
2016-10-11T00:47:07.753Z,5.85
2016-10-11T00:47:49.430Z,5.85
2016-10-11T00:48:31.171Z,5.9
2016-10-11T00:50:46.545Z,5.86
2016-10-11T00:51:28.301Z,5.81
2016-10-11T00:52:10.070Z,5.83
2016-10-11T00:52:51.726Z,5.85
2016-10-11T00:53:33.498Z,5.79
2016-10-11T00:54:15.198Z,5.83
2016-10-11T00:54:56.887Z,5.81
2016-10-11T00:55:38.517Z,5.89
2016-10-11T00:57:33.232Z,5.85
2016-10-11T00:58:15.010Z,5.85
2016-10-11T00:58:56.696Z,5.78
2016-10-11T00:59:38.504Z,5.83
2016-10-11T01:00:20.214Z,5.78
2016-10-11T01:01:01.882Z,5.86
2016-10-11T01:01:43.505Z,5.76
2016-10-11T01:02:25.264Z,5.81
2016-10-11T01:04:14.375Z,5.76
2016-10-11T01:04:54.910Z,5.76
2016-10-11T01:05:35.437Z,5.79
2016-10-11T01:06:15.975Z,5.75
2016-10-11T01:06:56.512Z,5.67
2016-10-11T01:07:37.052Z,5.75
2016-10-11T01:08:17.588Z,5.75
2016-10-11T01:08:58.130Z,5.74
2016-10-11T01:09:38.665Z,5.75
2016-10-11T01:10:19.196Z,5.74
2016-10-11T01:10:59.725Z,5.68
2016-10-11T01:11:40.253Z,5.74
2016-10-11T01:12:20.795Z,5.75
2016-10-11T01:13:01.331Z,5.72
2016-10-11T01:13:41.852Z,5.74
2016-10-11T01:14:22.394Z,5.75
2016-10-11T01:15:02.927Z,5.74
2016-10-11T01:15:43.454Z,5.71
2016-10-11T01:16:23.996Z,5.71
2016-10-11T01:17:04.536Z,5.76
2016-10-11T01:17:45.073Z,5.75
2016-10-11T01:18:25.609Z,5.79
2016-10-11T01:19:06.146Z,5.61
2016-10-11T01:19:46.682Z,5.71
2016-10-11T01:20:27.209Z,5.68
2016-10-11T01:21:07.744Z,5.67
2016-10-11T01:21:48.276Z,5.64
2016-10-11T01:22:28.804Z,5.64
2016-10-11T01:23:09.343Z,5.63
2016-10-11T01:23:49.890Z,5.61
2016-10-11T01:24:30.418Z,5.68
2016-10-11T01:25:10.957Z,5.63
2016-10-11T01:25:51.491Z,5.63
2016-10-11T01:26:32.026Z,5.56
2016-10-11T01:27:12.555Z,5.61
2016-10-11T01:27:53.094Z,5.6
2016-10-11T01:28:33.621Z,5.65
2016-10-11T01:29:14.157Z,5.6
2016-10-11T01:29:54.698Z,5.58
2016-10-11T01:30:35.220Z,5.64
2016-10-11T01:31:15.756Z,5.53
2016-10-11T01:31:56.293Z,5.53
2016-10-11T01:32:36.822Z,5.58
2016-10-11T01:33:17.359Z,5.54
2016-10-11T01:33:57.897Z,5.49
2016-10-11T01:34:38.419Z,5.48
2016-10-11T01:35:18.948Z,5.57
2016-10-11T01:35:59.483Z,5.42
2016-10-11T01:36:40.021Z,5.58
2016-10-11T01:37:20.553Z,5.51
2016-10-11T01:38:01.081Z,5.57
2016-10-11T01:38:41.614Z,5.49
2016-10-11T01:39:22.143Z,5.48
2016-10-11T01:40:02.685Z,5.51
2016-10-11T01:40:43.223Z,5.46
2016-10-11T01:41:23.756Z,5.51
2016-10-11T01:42:04.292Z,5.43
2016-10-11T01:42:44.831Z,5.42
2016-10-11T01:43:25.363Z,5.48
2016-10-11T01:44:05.899Z,5.43
2016-10-11T01:44:46.441Z,5.49
2016-10-11T01:45:26.967Z,5.48
2016-10-11T01:46:07.505Z,5.46
2016-10-11T01:46:48.040Z,5.48
2016-10-11T01:47:28.574Z,5.49
2016-10-11T01:48:09.110Z,5.48
2016-10-11T01:48:49.643Z,5.49
2016-10-11T01:49:30.181Z,5.54
2016-10-11T01:50:10.717Z,5.42
2016-10-11T01:50:51.248Z,5.58
2016-10-11T01:51:31.783Z,5.43
2016-10-11T01:52:12.317Z,5.51
2016-10-11T01:52:52.853Z,5.56
2016-10-11T01:53:33.393Z,5.54
2016-10-11T01:54:13.924Z,5.58
2016-10-11T01:54:54.460Z,5.67
2016-10-11T01:55:34.992Z,5.57
2016-10-11T01:56:15.521Z,5.64
2016-10-11T01:56:56.056Z,5.65
2016-10-11T01:57:36.582Z,5.65
2016-10-11T01:58:17.114Z,5.68
2016-10-11T01:58:57.650Z,5.63
2016-10-11T01:59:38.182Z,5.74
2016-10-11T02:00:18.711Z,5.61
2016-10-11T02:00:59.245Z,5.71
2016-10-11T02:01:39.782Z,5.68
2016-10-11T02:02:20.308Z,5.61
2016-10-11T02:03:00.831Z,5.72
2016-10-11T02:03:41.365Z,5.64
2016-10-11T02:04:21.910Z,5.75
2016-10-11T02:05:02.443Z,5.67
2016-10-11T02:05:42.976Z,5.68
2016-10-11T02:06:23.511Z,5.67
2016-10-11T02:07:04.039Z,5.71
2016-10-11T02:07:44.581Z,5.67
2016-10-11T02:08:25.114Z,5.79
2016-10-11T02:09:05.654Z,5.72
2016-10-11T02:09:46.197Z,5.72
2016-10-11T02:10:26.734Z,5.85
2016-10-11T02:11:07.270Z,5.82
2016-10-11T02:11:47.796Z,5.75
2016-10-11T02:12:28.341Z,5.85
2016-10-11T02:13:08.881Z,5.86
2016-10-11T02:13:49.418Z,5.82
2016-10-11T02:14:29.958Z,5.94
2016-10-11T02:15:10.500Z,5.86
2016-10-11T02:15:51.033Z,5.9
2016-10-11T02:16:31.561Z,5.99
2016-10-11T02:17:12.093Z,5.93
2016-10-11T02:17:52.623Z,5.96
2016-10-11T02:18:33.180Z,5.91
2016-10-11T02:19:13.698Z,5.99
2016-10-11T02:19:54.235Z,6.01
2016-10-11T02:20:34.796Z,5.99
2016-10-11T02:21:15.314Z,6.08
2016-10-11T02:21:55.842Z,5.99
2016-10-11T02:22:36.375Z,6.04
2016-10-11T02:23:16.903Z,5.97
2016-10-11T02:23:57.438Z,6
2016-10-11T02:24:37.977Z,6.06
2016-10-11T02:25:18.513Z,6.14
2016-10-11T02:25:59.042Z,6.09
2016-10-11T02:26:39.577Z,6.12
2016-10-11T02:27:20.116Z,6.12
2016-10-11T02:28:00.656Z,6.21
2016-10-11T02:28:41.191Z,6.14
2016-10-11T02:29:21.727Z,6.17
2016-10-11T02:30:02.255Z,6.17
2016-10-11T02:30:42.796Z,6.17
2016-10-11T02:31:23.330Z,6.21
2016-10-11T02:32:03.870Z,6.15
2016-10-11T02:32:44.409Z,6.09
2016-10-11T02:33:24.946Z,6.15
2016-10-11T02:34:05.489Z,6.12
2016-10-11T02:34:46.030Z,6.15
2016-10-11T02:35:26.566Z,6.12
2016-10-11T02:36:07.099Z,6.11
2016-10-11T02:36:47.633Z,6.17
2016-10-11T02:37:28.170Z,6.12
2016-10-11T02:38:08.698Z,6.04
2016-10-11T02:38:49.235Z,6.11
2016-10-11T02:39:29.769Z,6.09
2016-10-11T02:40:10.306Z,6.11
2016-10-11T02:40:50.837Z,6.06
2016-10-11T02:41:31.375Z,6.11
2016-10-11T02:42:11.918Z,6.04
2016-10-11T02:42:52.455Z,6.06
2016-10-11T02:43:32.995Z,6.14
2016-10-11T02:44:13.527Z,6.11
2016-10-11T02:44:54.057Z,6.14
2016-10-11T02:45:34.585Z,6.12
2016-10-11T02:46:15.122Z,6.11
2016-10-11T02:46:55.652Z,6.09
2016-10-11T02:47:36.192Z,6.11
2016-10-11T02:48:16.727Z,6.09
2016-10-11T02:48:57.261Z,6
2016-10-11T02:49:37.806Z,6.11
2016-10-11T02:50:18.327Z,6
2016-10-11T02:50:58.853Z,5.99
2016-10-11T02:51:39.375Z,5.99
2016-10-11T02:52:19.908Z,6
2016-10-11T02:53:00.448Z,5.96
2016-10-11T02:53:40.978Z,5.99
2016-10-11T02:54:21.517Z,6.12
2016-10-11T02:55:02.059Z,6.01
2016-10-11T02:55:42.593Z,6
2016-10-11T02:56:23.128Z,5.97
2016-10-11T02:57:03.662Z,5.99
2016-10-11T02:57:44.205Z,6.06
2016-10-11T02:58:24.740Z,6.14
2016-10-11T02:59:05.284Z,6.09
2016-10-11T02:59:45.815Z,6.11
2016-10-11T03:00:26.352Z,6.06
2016-10-11T03:01:06.885Z,6.09
2016-10-11T03:01:47.414Z,6.01
2016-10-11T03:02:27.952Z,6.09
2016-10-11T03:03:08.493Z,6.15
2016-10-11T03:03:49.032Z,6.15
2016-10-11T03:04:29.574Z,6.25
2016-10-11T03:05:10.112Z,6.12
2016-10-11T03:05:50.650Z,6.18
2016-10-11T03:06:31.183Z,6.18
2016-10-11T03:07:11.717Z,6.18
2016-10-11T03:07:52.258Z,6.18
2016-10-11T03:08:32.790Z,6.25
2016-10-11T03:09:13.325Z,6.17
2016-10-11T03:09:53.866Z,6.08
2016-10-11T03:10:34.398Z,6.19
2016-10-11T03:11:14.930Z,6.19
2016-10-11T03:11:55.460Z,6.22
2016-10-11T03:12:36.000Z,6.22
2016-10-11T03:13:16.542Z,6.21
2016-10-11T03:13:57.080Z,6.19
2016-10-11T03:14:37.619Z,6.21
2016-10-11T03:15:18.159Z,6.19
2016-10-11T03:15:58.684Z,6.19
2016-10-11T03:16:39.221Z,6.21
2016-10-11T03:17:19.754Z,6.21
2016-10-11T03:18:00.290Z,6.12
2016-10-11T03:18:40.825Z,6.21
2016-10-11T03:19:21.357Z,6.21
2016-10-11T03:20:01.886Z,6.22
2016-10-11T03:20:42.422Z,6.18
2016-10-11T03:21:23.007Z,6.22
2016-10-11T03:22:03.535Z,6.18
2016-10-11T03:22:44.083Z,6.22
2016-10-11T03:23:24.612Z,6.17
2016-10-11T03:24:05.143Z,6.18
2016-10-11T03:24:45.681Z,6.18
2016-10-11T03:25:26.212Z,6.19
2016-10-11T03:26:06.730Z,6.14
2016-10-11T03:26:47.275Z,6.14
2016-10-11T03:27:27.811Z,6.15
2016-10-11T03:28:08.348Z,6.08
2016-10-11T03:28:48.884Z,6.08
2016-10-11T03:29:29.397Z,6.11
2016-10-11T03:30:09.959Z,6
2016-10-11T03:30:50.507Z,6.01
2016-10-11T03:31:31.050Z,5.99
2016-10-11T03:32:11.537Z,5.97
2016-10-11T03:32:52.029Z,6.03
2016-10-11T03:33:32.528Z,6.01
2016-10-11T03:34:13.069Z,6.03
2016-10-11T03:34:53.599Z,6.04
2016-10-11T03:35:34.129Z,5.97
2016-10-11T03:36:14.667Z,5.89
2016-10-11T03:36:55.206Z,5.94
2016-10-11T03:37:35.727Z,5.97
2016-10-11T03:38:16.265Z,5.94
2016-10-11T03:38:56.793Z,5.96
2016-10-11T03:39:37.338Z,5.99
2016-10-11T03:40:17.867Z,5.94
2016-10-11T03:40:58.405Z,5.97
2016-10-11T03:41:38.938Z,5.99
2016-10-11T03:42:19.471Z,6.01
2016-10-11T03:43:00.004Z,5.96
2016-10-11T03:43:40.536Z,6.03
2016-10-11T03:44:21.073Z,6.06
2016-10-11T03:45:01.601Z,6.03
2016-10-11T03:45:42.136Z,6.06
2016-10-11T03:46:22.657Z,5.97
2016-10-11T03:47:03.198Z,5.99
2016-10-11T03:47:43.723Z,6.08
2016-10-11T03:48:24.264Z,6.09
2016-10-11T03:49:04.798Z,6.11
2016-10-11T03:49:45.368Z,6.12
2016-10-11T03:50:25.909Z,6.22
2016-10-11T03:51:06.445Z,6.17
2016-10-11T03:51:46.985Z,6.18
2016-10-11T03:52:27.508Z,6.15
2016-10-11T03:53:08.039Z,6.15
2016-10-11T03:53:48.590Z,6.18
2016-10-11T03:54:29.131Z,6.21
2016-10-11T03:55:09.679Z,6.18
2016-10-11T03:55:50.244Z,6.21
2016-10-11T03:56:30.813Z,6.27
2016-10-11T03:57:11.342Z,6.3
2016-10-11T03:57:51.876Z,6.17
2016-10-11T03:58:32.402Z,6.22
2016-10-11T03:59:12.950Z,6.25
2016-10-11T03:59:53.509Z,6.34
2016-10-11T04:00:34.032Z,6.28
2016-10-11T04:01:14.550Z,6.3
2016-10-11T04:01:55.104Z,6.25
2016-10-11T04:02:35.643Z,6.27
2016-10-11T04:03:16.173Z,6.27
2016-10-11T04:03:56.711Z,6.3
2016-10-11T04:04:37.255Z,6.34
2016-10-11T04:05:17.775Z,6.22
2016-10-11T04:05:58.300Z,6.31
2016-10-11T04:06:38.848Z,6.34
2016-10-11T04:07:19.559Z,6.3
2016-10-11T04:08:00.149Z,6.36
2016-10-11T04:08:40.716Z,6.28
2016-10-11T04:09:21.248Z,6.33
2016-10-11T04:10:01.787Z,6.36
2016-10-11T04:10:42.322Z,6.3
2016-10-11T04:11:22.864Z,6.3
2016-10-11T04:12:03.403Z,6.34
2016-10-11T04:12:43.933Z,6.31
2016-10-11T04:13:24.474Z,6.33
2016-10-11T04:14:05.129Z,6.31
2016-10-11T04:14:45.672Z,6.46
2016-10-11T04:15:26.233Z,6.4
2016-10-11T04:16:06.743Z,6.38
2016-10-11T04:16:47.274Z,6.34
2016-10-11T04:17:27.817Z,6.44
2016-10-11T04:18:08.358Z,6.48
2016-10-11T04:18:48.893Z,6.38
2016-10-11T04:19:29.434Z,6.37
2016-10-11T04:20:09.969Z,6.44
2016-10-11T04:20:50.606Z,6.4
2016-10-11T04:21:31.150Z,6.36
2016-10-11T04:22:11.701Z,6.37
2016-10-11T04:22:52.241Z,6.4
2016-10-11T04:23:32.779Z,6.4
2016-10-11T04:24:13.320Z,6.4
2016-10-11T04:24:53.846Z,6.34
2016-10-11T04:25:34.403Z,6.41
2016-10-11T04:26:14.902Z,6.54
2016-10-11T04:26:55.440Z,6.48
2016-10-11T04:27:35.984Z,6.56
2016-10-11T04:28:16.521Z,6.52
2016-10-11T04:28:57.051Z,6.55
2016-10-11T04:29:37.586Z,6.52
2016-10-11T04:30:18.128Z,6.54
2016-10-11T04:30:58.663Z,6.52
2016-10-11T04:31:39.202Z,6.52
2016-10-11T04:32:19.744Z,6.56
2016-10-11T04:33:00.276Z,6.54
2016-10-11T04:33:40.816Z,6.49
2016-10-11T04:34:21.348Z,6.51
2016-10-11T04:35:01.874Z,6.52
2016-10-11T04:35:42.416Z,6.49
2016-10-11T04:36:22.955Z,6.52
2016-10-11T04:37:03.492Z,6.52
2016-10-11T04:37:44.059Z,6.55
2016-10-11T04:38:24.581Z,6.54
2016-10-11T04:39:05.119Z,6.54
2016-10-11T04:39:45.651Z,6.61
2016-10-11T04:40:26.195Z,6.59
2016-10-11T04:41:06.764Z,6.54
2016-10-11T04:41:47.290Z,6.49
2016-10-11T04:42:27.836Z,6.58
2016-10-11T04:43:08.369Z,6.61
2016-10-11T04:43:48.901Z,6.58
2016-10-11T04:44:29.443Z,6.55
2016-10-11T04:45:09.982Z,6.55
2016-10-11T04:45:50.512Z,6.58
2016-10-11T04:46:31.048Z,6.54
2016-10-11T04:47:11.582Z,6.55
2016-10-11T04:47:52.118Z,6.58
2016-10-11T04:48:32.675Z,6.59
2016-10-11T04:49:13.218Z,6.61
2016-10-11T04:49:53.756Z,6.61
2016-10-11T04:50:34.289Z,6.54
2016-10-11T04:51:14.822Z,6.55
2016-10-11T04:51:55.358Z,6.55
2016-10-11T04:52:35.887Z,6.66
2016-10-11T04:53:16.426Z,6.58
2016-10-11T04:53:56.966Z,6.54
2016-10-11T04:54:37.502Z,6.56
2016-10-11T04:55:18.079Z,6.54
2016-10-11T04:55:58.629Z,6.55
2016-10-11T04:56:39.165Z,6.58
2016-10-11T04:57:19.714Z,6.54
2016-10-11T04:58:00.246Z,6.58
2016-10-11T04:58:40.772Z,6.59
2016-10-11T04:59:21.303Z,6.54
2016-10-11T05:00:01.833Z,6.55
2016-10-11T05:00:42.372Z,6.56
2016-10-11T05:01:22.913Z,6.55
2016-10-11T05:02:03.443Z,6.62
2016-10-11T05:02:43.954Z,6.55
2016-10-11T05:03:24.489Z,6.58
2016-10-11T05:04:05.034Z,6.55
2016-10-11T05:04:45.575Z,6.56
2016-10-11T05:05:26.113Z,6.56
2016-10-11T05:06:06.632Z,6.55
2016-10-11T05:06:47.178Z,6.59
2016-10-11T05:07:27.716Z,6.61
2016-10-11T05:08:08.262Z,6.59
2016-10-11T05:08:48.787Z,6.59
2016-10-11T05:09:29.320Z,6.59
2016-10-11T05:10:09.858Z,6.59
2016-10-11T05:10:50.386Z,6.62
2016-10-11T05:11:30.922Z,6.61
2016-10-11T05:12:11.462Z,6.62
2016-10-11T05:12:52.010Z,6.61
2016-10-11T05:13:32.549Z,6.66
2016-10-11T05:14:13.091Z,6.58
2016-10-11T05:14:53.633Z,6.58
2016-10-11T05:15:34.161Z,6.52
2016-10-11T05:16:14.703Z,6.56
2016-10-11T05:16:55.235Z,6.4
2016-10-11T05:17:35.765Z,6.4
2016-10-11T05:18:16.294Z,6.33
2016-10-11T05:18:56.834Z,6.27
2016-10-11T05:19:37.387Z,6.34
2016-10-11T05:20:17.888Z,6.28
2016-10-11T05:20:58.452Z,6.28
2016-10-11T05:21:38.995Z,6.36
2016-10-11T05:22:19.519Z,6.3
2016-10-11T05:23:00.047Z,6.27
2016-10-11T05:23:40.581Z,6.28
2016-10-11T05:24:21.110Z,6.33
2016-10-11T05:25:01.647Z,6.28
2016-10-11T05:25:42.185Z,6.36
2016-10-11T05:26:22.720Z,6.36
2016-10-11T05:27:03.269Z,6.4
2016-10-11T05:27:43.800Z,6.3
2016-10-11T05:28:24.336Z,6.3
2016-10-11T05:29:04.868Z,6.38
2016-10-11T05:29:45.401Z,6.34
2016-10-11T05:30:25.935Z,6.31
2016-10-11T05:31:06.481Z,6.34
2016-10-11T05:31:47.040Z,6.37
2016-10-11T05:32:27.575Z,6.44
2016-10-11T05:33:08.130Z,6.4
2016-10-11T05:33:48.647Z,6.36
2016-10-11T05:34:29.195Z,6.4
2016-10-11T05:35:09.749Z,6.41
2016-10-11T05:35:50.296Z,6.4
2016-10-11T05:36:30.834Z,6.41
2016-10-11T05:37:11.386Z,6.37
2016-10-11T05:37:51.910Z,6.46
2016-10-11T05:38:32.461Z,6.4
2016-10-11T05:39:12.998Z,6.43
2016-10-11T05:39:53.538Z,6.43
2016-10-11T05:40:34.068Z,6.36
2016-10-11T05:41:14.596Z,6.4
2016-10-11T05:41:55.122Z,6.43
2016-10-11T05:42:35.720Z,6.4
2016-10-11T05:43:16.251Z,6.41
2016-10-11T05:43:56.807Z,6.4
2016-10-11T05:44:37.344Z,6.46
2016-10-11T05:45:17.893Z,6.34
2016-10-11T05:45:58.415Z,6.38
2016-10-11T05:46:38.956Z,6.37
2016-10-11T05:47:19.458Z,6.43
2016-10-11T05:47:59.994Z,6.41
2016-10-11T05:48:40.510Z,6.38
2016-10-11T05:49:21.049Z,6.44
2016-10-11T05:50:01.583Z,6.44
2016-10-11T05:50:42.106Z,6.4
2016-10-11T05:51:22.608Z,6.38
2016-10-11T05:52:03.138Z,6.43
2016-10-11T05:52:43.675Z,6.4
2016-10-11T05:53:24.209Z,6.38
2016-10-11T05:54:04.738Z,6.31
2016-10-11T05:54:45.266Z,6.37
2016-10-11T05:55:25.812Z,6.31
2016-10-11T05:56:06.344Z,6.33
2016-10-11T05:56:46.874Z,6.34
2016-10-11T05:57:27.408Z,6.27
2016-10-11T05:58:07.954Z,6.36
2016-10-11T05:58:48.500Z,6.36
2016-10-11T05:59:29.025Z,6.37
2016-10-11T06:00:09.564Z,6.41
2016-10-11T06:00:50.093Z,6.44
2016-10-11T06:01:30.623Z,6.4
2016-10-11T06:02:11.175Z,6.41
2016-10-11T06:02:51.689Z,6.38
2016-10-11T06:03:32.215Z,6.38
2016-10-11T06:04:12.754Z,6.37
2016-10-11T06:04:53.297Z,6.38
2016-10-11T06:05:33.831Z,6.37
2016-10-11T06:06:14.370Z,6.38
2016-10-11T06:06:54.906Z,6.38
2016-10-11T06:07:35.435Z,6.41
2016-10-11T06:08:15.961Z,6.49
2016-10-11T06:08:56.503Z,6.49
2016-10-11T06:09:37.036Z,6.43
2016-10-11T06:10:17.573Z,6.51
2016-10-11T06:10:58.109Z,6.56
2016-10-11T06:11:38.646Z,6.46
2016-10-11T06:12:19.173Z,6.49
2016-10-11T06:12:59.704Z,6.55
2016-10-11T06:13:40.255Z,6.55
2016-10-11T06:14:20.793Z,6.48
2016-10-11T06:15:01.338Z,6.55
2016-10-11T06:15:41.873Z,6.52
2016-10-11T06:16:22.404Z,6.55
2016-10-11T06:17:02.931Z,6.55
2016-10-11T06:17:43.473Z,6.49
2016-10-11T06:18:24.001Z,6.48
2016-10-11T06:19:04.536Z,6.56
2016-10-11T06:19:45.077Z,6.51
2016-10-11T06:20:25.622Z,6.49
2016-10-11T06:21:06.166Z,6.52
2016-10-11T06:21:46.682Z,6.49
2016-10-11T06:22:27.212Z,6.55
2016-10-11T06:23:07.775Z,6.51
2016-10-11T06:23:48.296Z,6.43
2016-10-11T06:24:28.824Z,6.4
2016-10-11T06:25:09.364Z,6.37
2016-10-11T06:25:49.887Z,6.36
2016-10-11T06:26:30.464Z,6.48
2016-10-11T06:27:10.987Z,6.41
2016-10-11T06:27:51.529Z,6.33
2016-10-11T06:28:32.034Z,6.27
2016-10-11T06:29:12.573Z,6.25
2016-10-11T06:29:53.112Z,6.28
2016-10-11T06:30:33.636Z,6.25
2016-10-11T06:31:14.176Z,6.27
2016-10-11T06:31:54.724Z,6.17
2016-10-11T06:32:35.251Z,6.19
2016-10-11T06:33:15.785Z,6.17
2016-10-11T06:33:56.325Z,6.15
2016-10-11T06:34:36.862Z,6.17
2016-10-11T06:35:17.389Z,6.14
2016-10-11T06:35:57.921Z,6.19
2016-10-11T06:36:38.457Z,6.15
2016-10-11T06:37:19.001Z,6.17
2016-10-11T06:37:59.539Z,6.15
2016-10-11T06:38:40.078Z,6.15
2016-10-11T06:39:20.613Z,6.15
2016-10-11T06:40:01.147Z,6.19
2016-10-11T06:40:41.688Z,6.15
2016-10-11T06:41:22.224Z,6.11
2016-10-11T06:42:02.768Z,6.11
2016-10-11T06:42:43.308Z,6.17
2016-10-11T06:43:23.849Z,6.19
2016-10-11T06:44:04.388Z,6.14
2016-10-11T06:44:44.919Z,6.17
2016-10-11T06:45:25.464Z,6.15
2016-10-11T06:46:05.996Z,6.27
2016-10-11T06:46:46.531Z,6.15
2016-10-11T06:47:27.070Z,6.18
2016-10-11T06:48:07.623Z,6.19
2016-10-11T06:48:48.161Z,6.21
2016-10-11T06:49:28.706Z,6.18
2016-10-11T06:50:09.241Z,6.25
2016-10-11T06:50:49.787Z,6.15
2016-10-11T06:51:30.342Z,6.19
2016-10-11T06:52:10.879Z,6.17
2016-10-11T06:52:51.409Z,6.14
2016-10-11T06:53:31.955Z,6.21
2016-10-11T06:54:12.486Z,6.22
2016-10-11T06:54:53.029Z,6.19
2016-10-11T06:55:33.568Z,6.14
2016-10-11T06:56:14.105Z,6.17
2016-10-11T06:56:54.632Z,6.18
2016-10-11T06:57:35.160Z,6.15
2016-10-11T06:58:15.706Z,6.15
2016-10-11T06:58:56.243Z,6.17
2016-10-11T06:59:36.777Z,6.14
2016-10-11T07:00:17.325Z,6.11
2016-10-11T07:00:57.873Z,6.14
2016-10-11T07:01:38.408Z,6.12
2016-10-11T07:02:18.937Z,6.17
2016-10-11T07:02:59.468Z,6.21
2016-10-11T07:03:40.000Z,6.18
2016-10-11T07:04:20.541Z,6.21
2016-10-11T07:05:01.075Z,6.22
2016-10-11T07:05:41.613Z,6.18
2016-10-11T07:06:22.153Z,6.22
2016-10-11T07:07:02.674Z,6.22
2016-10-11T07:07:43.228Z,6.27
2016-10-11T07:08:23.768Z,6.28
2016-10-11T07:09:04.306Z,6.21
2016-10-11T07:09:44.853Z,6.3
2016-10-11T07:10:25.398Z,6.34
2016-10-11T07:11:05.920Z,6.31
2016-10-11T07:11:46.442Z,6.34
2016-10-11T07:12:26.984Z,6.28
2016-10-11T07:13:07.521Z,6.25
2016-10-11T07:13:48.053Z,6.25
2016-10-11T07:14:28.600Z,6.27
2016-10-11T07:15:09.135Z,6.34
2016-10-11T07:15:49.674Z,6.25
2016-10-11T07:16:30.202Z,6.33
2016-10-11T07:17:10.745Z,6.28
2016-10-11T07:17:51.275Z,6.3
2016-10-11T07:18:31.808Z,6.34
2016-10-11T07:19:12.347Z,6.31
2016-10-11T07:19:52.868Z,6.34
2016-10-11T07:20:33.401Z,6.36
2016-10-11T07:21:13.928Z,6.37
2016-10-11T07:21:54.471Z,6.4
2016-10-11T07:22:35.006Z,6.43
2016-10-11T07:23:15.542Z,6.43
2016-10-11T07:23:56.086Z,6.44
2016-10-11T07:24:36.624Z,6.38
2016-10-11T07:25:17.168Z,6.38
2016-10-11T07:25:57.722Z,6.37
2016-10-11T07:26:38.256Z,6.43
2016-10-11T07:27:18.781Z,6.46
2016-10-11T07:27:59.347Z,6.46
2016-10-11T07:28:39.891Z,6.52
2016-10-11T07:29:20.441Z,6.48
2016-10-11T07:30:01.026Z,6.61
2016-10-11T07:30:41.580Z,6.51
2016-10-11T07:31:22.122Z,6.61
2016-10-11T07:32:02.671Z,6.59
2016-10-11T07:32:43.208Z,6.61
2016-10-11T07:33:23.743Z,6.62
2016-10-11T07:34:04.280Z,6.64
2016-10-11T07:34:44.837Z,6.69
2016-10-11T07:35:25.379Z,6.62
2016-10-11T07:36:05.908Z,6.73
2016-10-11T07:36:46.490Z,6.7
2016-10-11T07:37:27.031Z,6.79
2016-10-11T07:38:07.591Z,6.74
2016-10-11T07:38:48.110Z,6.77
2016-10-11T07:39:28.673Z,6.73
2016-10-11T07:40:09.211Z,6.74
2016-10-11T07:40:49.766Z,6.69
2016-10-11T07:41:30.293Z,6.74
2016-10-11T07:42:10.822Z,6.77
2016-10-11T07:42:51.352Z,6.74
2016-10-11T07:43:31.889Z,6.8
2016-10-11T07:44:12.429Z,6.81
2016-10-11T07:44:52.960Z,6.87
2016-10-11T07:45:33.500Z,6.84
2016-10-11T07:46:14.040Z,6.85
2016-10-11T07:46:54.572Z,6.87
2016-10-11T07:47:35.104Z,6.85
2016-10-11T07:48:15.646Z,6.81
2016-10-11T07:48:56.187Z,6.85
2016-10-11T07:49:36.760Z,6.89
2016-10-11T07:50:17.335Z,6.89
2016-10-11T07:50:57.884Z,6.89
2016-10-11T07:51:38.457Z,6.91
2016-10-11T07:52:19.028Z,6.91
2016-10-11T07:52:59.657Z,6.99
2016-10-11T07:53:40.216Z,6.94
2016-10-11T07:54:20.757Z,6.95
2016-10-11T07:55:01.309Z,6.92
2016-10-11T07:55:41.876Z,6.97
2016-10-11T07:56:22.433Z,7.03
2016-10-11T07:57:03.013Z,7.09
2016-10-11T07:57:43.552Z,7.05
2016-10-11T07:58:24.089Z,7.15
2016-10-11T07:59:04.662Z,7.1
2016-10-11T07:59:45.192Z,7.09
2016-10-11T08:00:25.738Z,7.2
2016-10-11T08:01:06.282Z,7.2
2016-10-11T08:01:46.820Z,7.16
2016-10-11T08:02:27.350Z,7.15
2016-10-11T08:03:07.875Z,7.16
2016-10-11T08:03:48.419Z,7.17
2016-10-11T08:04:29.013Z,7.16
2016-10-11T08:05:09.549Z,7.1
2016-10-11T08:05:50.082Z,7.17
2016-10-11T08:06:30.632Z,7.15
2016-10-11T08:07:11.164Z,7.13
2016-10-11T08:07:51.762Z,7.15
2016-10-11T08:08:32.297Z,7.2
2016-10-11T08:09:12.849Z,7.15
2016-10-11T08:09:53.369Z,7.2
2016-10-11T08:10:33.927Z,7.2
2016-10-11T08:11:14.435Z,7.2
2016-10-11T08:11:54.975Z,7.16
2016-10-11T08:12:35.556Z,7.2
2016-10-11T08:13:16.094Z,7.16
2016-10-11T08:13:56.668Z,7.1
2016-10-11T08:14:37.199Z,7.12
2016-10-11T08:15:17.782Z,7.1
2016-10-11T08:15:58.308Z,7.13
2016-10-11T08:16:38.848Z,7.06
2016-10-11T08:17:19.388Z,7.09
2016-10-11T08:17:59.992Z,6.99
2016-10-11T08:18:40.528Z,7.03
2016-10-11T08:19:21.044Z,6.98
2016-10-11T08:20:01.606Z,6.98
2016-10-11T08:20:42.175Z,6.99
2016-10-11T08:21:22.718Z,6.99
2016-10-11T08:22:03.258Z,7.02
2016-10-11T08:22:43.795Z,6.94
2016-10-11T08:23:24.325Z,7.02
2016-10-11T08:24:04.850Z,6.97
2016-10-11T08:24:45.393Z,6.95
2016-10-11T08:25:25.942Z,6.98
2016-10-11T08:26:06.520Z,6.97
2016-10-11T08:26:47.100Z,6.92
2016-10-11T08:27:27.659Z,6.95
2016-10-11T08:28:08.250Z,6.97
2016-10-11T08:28:48.808Z,6.97
2016-10-11T08:29:29.358Z,6.99
2016-10-11T08:30:09.889Z,6.88
2016-10-11T08:30:50.495Z,6.88
2016-10-11T08:31:31.071Z,6.85
2016-10-11T08:32:11.627Z,6.88
2016-10-11T08:32:52.148Z,6.97
2016-10-11T08:33:32.708Z,6.98
2016-10-11T08:34:13.247Z,6.95
2016-10-11T08:34:53.788Z,6.94
2016-10-11T08:35:34.311Z,7.06
2016-10-11T08:36:14.844Z,6.97
2016-10-11T08:36:55.372Z,6.98
2016-10-11T08:37:35.948Z,6.99
2016-10-11T08:38:16.482Z,6.98
2016-10-11T08:38:57.026Z,7.02
2016-10-11T08:39:37.564Z,7.1
2016-10-11T08:40:18.162Z,7.1
2016-10-11T08:40:58.701Z,7.16
2016-10-11T08:41:39.240Z,7.17
2016-10-11T08:42:19.808Z,7.13
2016-10-11T08:43:00.340Z,7.17
2016-10-11T08:43:40.890Z,7.23
2016-10-11T08:44:21.443Z,7.17
2016-10-11T08:45:01.992Z,7.15
2016-10-11T08:45:42.525Z,7.13
2016-10-11T08:46:23.098Z,7.21
2016-10-11T08:47:03.627Z,7.12
2016-10-11T08:47:44.173Z,7.09
2016-10-11T08:48:24.708Z,7.12
2016-10-11T08:49:05.260Z,7.17
2016-10-11T08:49:45.867Z,7.23
2016-10-11T08:50:26.420Z,7.2
2016-10-11T08:51:06.943Z,7.17
2016-10-11T08:51:47.492Z,7.23
2016-10-11T08:52:28.028Z,7.27
2016-10-11T08:53:08.574Z,7.21
2016-10-11T08:53:49.109Z,7.24
2016-10-11T08:54:29.685Z,7.2
2016-10-11T08:55:10.223Z,7.23
2016-10-11T08:55:50.764Z,7.21
2016-10-11T08:56:31.294Z,7.16
2016-10-11T08:57:11.837Z,7.28
2016-10-11T08:57:52.387Z,7.25
2016-10-11T08:58:32.924Z,7.28
2016-10-11T08:59:13.464Z,7.27
2016-10-11T08:59:54.004Z,7.32
2016-10-11T09:00:34.566Z,7.21
2016-10-11T09:01:15.102Z,7.21
2016-10-11T09:01:55.640Z,7.25
2016-10-11T09:02:36.173Z,7.16
2016-10-11T09:03:16.699Z,7.09
2016-10-11T09:03:57.246Z,7.07
2016-10-11T09:04:37.777Z,7.05
2016-10-11T09:05:18.306Z,7.12
2016-10-11T09:05:58.841Z,6.99
2016-10-11T09:06:39.382Z,7.07
2016-10-11T09:07:19.926Z,7.1
2016-10-11T09:08:00.452Z,7.21
2016-10-11T09:08:40.998Z,7.15
2016-10-11T09:09:21.532Z,7.21
2016-10-11T09:10:02.072Z,7.2
2016-10-11T09:10:42.602Z,7.3
2016-10-11T09:11:23.137Z,7.27
2016-10-11T09:12:03.697Z,7.34
2016-10-11T09:12:44.238Z,7.32
2016-10-11T09:13:24.766Z,7.46
2016-10-11T09:14:05.307Z,7.46
2016-10-11T09:14:45.848Z,7.42
2016-10-11T09:15:26.377Z,7.42
2016-10-11T09:16:06.907Z,7.55